Time;durP1;ratioP1;P1;durP2;ratioP2;P2;SDS_P1;SDS_P2;PMS_P1;PMS_P2;Temp;Humidity;BMP_temperature;BMP_pressure;BME280_temperature;BME280_humidity;BME280_pressure;Samples;Min_cycle;Max_cycle;Signal;HPM_P1;HPM_P2
2024/01/05 00:01:43;;;;;;;5.30;4.30;;;;;;;4.85;100.00;96414.14;110382;1242;69792;-75
2024/01/05 00:04:13;;;;;;;5.20;4.30;;;;;;;4.79;100.00;96421.24;110387;1243;59666;-74
2024/01/05 00:06:43;;;;;;;5.40;3.80;;;;;;;4.75;100.00;96432.23;110371;1242;59737;-75
2024/01/05 00:09:14;;;;;;;5.10;3.50;;;;;;;4.71;100.00;96431.11;110545;1242;71332;-75
2024/01/05 00:11:43;;;;;;;4.40;3.10;;;;;;;4.67;100.00;96434.48;110403;1241;69717;-75
2024/01/05 00:14:12;;;;;;;4.30;3.30;;;;;;;4.64;100.00;96443.54;110349;1242;69707;-75
2024/01/05 00:16:43;;;;;;;4.00;3.10;;;;;;;4.62;100.00;96449.31;110350;1241;59689;-75
2024/01/05 00:19:12;;;;;;;;;;;;;;;4.62;100.00;96450.54;110470;1241;59702;-75
2024/01/05 00:21:42;;;;;;;4.30;2.90;;;;;;;4.59;100.00;96453.80;110407;1240;71402;-75
2024/01/05 00:24:12;;;;;;;5.10;3.60;;;;;;;4.58;100.00;96455.58;110513;1238;69988;-75
2024/01/05 00:26:42;;;;;;;4.50;3.90;;;;;;;4.56;100.00;96459.14;110389;1240;69871;-75
2024/01/05 00:29:13;;;;;;;5.00;3.70;;;;;;;4.57;100.00;96456.35;110397;1241;59734;-75
2024/01/05 00:31:43;;;;;;;4.30;3.00;;;;;;;4.54;100.00;96455.48;110431;1239;59672;-75
2024/01/05 00:34:14;;;;;;;6.70;3.60;;;;;;;4.51;100.00;96454.16;110462;1239;71362;-75
2024/01/05 00:36:44;;;;;;;4.50;2.80;;;;;;;4.46;100.00;96448.27;110445;1239;69244;-75
2024/01/05 00:39:16;;;;;;;4.40;3.50;;;;;;;4.43;100.00;96455.02;110414;1240;68710;-75
2024/01/05 00:41:47;;;;;;;5.70;3.90;;;;;;;4.42;100.00;96453.73;110360;1241;59687;-75
2024/01/05 00:44:17;;;;;;;3.70;2.90;;;;;;;4.38;100.00;96448.46;110369;1242;59672;-75
2024/01/05 00:46:47;;;;;;;5.20;3.30;;;;;;;4.32;100.00;96451.04;110471;1242;71998;-75
2024/01/05 00:49:18;;;;;;;4.00;3.10;;;;;;;4.27;100.00;96451.87;110533;1242;69777;-75
2024/01/05 00:51:49;;;;;;;3.70;2.60;;;;;;;4.24;100.00;96460.02;110415;1242;69844;-74
2024/01/05 00:54:19;;;;;;;5.00;3.40;;;;;;;4.22;100.00;96465.70;110411;1241;59731;-75
2024/01/05 00:56:51;;;;;;;5.10;3.40;;;;;;;4.25;100.00;96464.40;110410;1241;59696;-75
2024/01/05 00:59:22;;;;;;;4.90;4.10;;;;;;;4.33;100.00;96468.59;110340;1242;71420;-75
2024/01/05 01:01:53;;;;;;;6.40;4.20;;;;;;;4.37;100.00;96472.45;110469;1248;68611;-75
2024/01/05 01:04:23;;;;;;;6.60;5.30;;;;;;;4.38;100.00;96469.98;110385;1238;69848;-75
2024/01/05 01:06:53;;;;;;;6.70;4.50;;;;;;;4.36;100.00;96477.35;110397;1241;59690;-75
2024/01/05 01:09:23;;;;;;;8.10;6.20;;;;;;;4.32;100.00;96481.41;110400;1242;59675;-74
2024/01/05 01:11:54;;;;;;;7.80;5.10;;;;;;;4.26;100.00;96486.26;110377;1238;70562;-75
2024/01/05 01:14:24;;;;;;;6.20;5.30;;;;;;;4.19;100.00;96483.96;110414;1242;69233;-75
2024/01/05 01:16:55;;;;;;;6.00;4.90;;;;;;;4.14;100.00;96488.44;110521;1242;68740;-75
2024/01/05 01:19:25;;;;;;;;;;;;;;;4.14;100.00;96489.30;110497;1242;59672;-75
2024/01/05 01:21:55;;;;;;;5.60;4.80;;;;;;;4.15;100.00;96484.87;110365;1244;59675;-75
2024/01/05 01:24:25;;;;;;;8.10;4.60;;;;;;;4.13;100.00;96480.85;110356;1242;70616;-75
2024/01/05 01:26:55;;;;;;;6.90;5.50;;;;;;;4.07;100.00;96482.27;110345;1238;68510;-75
2024/01/05 01:29:26;;;;;;;6.40;3.90;;;;;;;3.92;100.00;96484.38;110413;1242;68595;-74
2024/01/05 01:31:57;;;;;;;7.10;4.80;;;;;;;3.77;100.00;96487.90;110365;1240;59662;-74
2024/01/05 01:34:28;;;;;;;6.60;4.50;;;;;;;3.61;100.00;96489.70;110431;1241;59731;-74
2024/01/05 01:36:59;;;;;;;6.60;4.20;;;;;;;3.54;100.00;96489.59;110430;1239;71460;-74
2024/01/05 01:39:30;;;;;;;5.30;3.70;;;;;;;3.50;100.00;96487.98;110360;1242;69156;-74
2024/01/05 01:42:02;;;;;;;5.30;3.70;;;;;;;3.45;100.00;96484.41;110525;1241;69227;-74
2024/01/05 01:44:33;;;;;;;5.10;3.50;;;;;;;3.45;100.00;96484.97;110494;1242;59734;-74
2024/01/05 01:47:04;;;;;;;5.80;4.10;;;;;;;3.46;100.00;96488.34;110436;1238;59699;-74
2024/01/05 01:49:35;;;;;;;6.60;4.70;;;;;;;3.47;100.00;96489.86;110430;1241;71357;-74
2024/01/05 01:52:06;;;;;;;5.00;4.30;;;;;;;3.44;100.00;96496.02;110467;1242;69214;-74
2024/01/05 01:54:37;;;;;;;5.30;4.00;;;;;;;3.38;100.00;96504.33;110345;1242;69264;-74
2024/01/05 01:57:08;;;;;;;4.70;3.60;;;;;;;3.29;100.00;96502.43;110405;1243;59728;-74
2024/01/05 01:59:38;;;;;;;4.40;3.60;;;;;;;3.21;100.00;96506.19;110418;1242;59723;-74
2024/01/05 02:02:12;;;;;;;4.20;3.00;;;;;;;3.18;100.00;96507.92;110356;1241;70403;-74
2024/01/05 02:04:42;;;;;;;4.10;3.20;;;;;;;3.13;100.00;96513.03;110355;1239;68413;-74
2024/01/05 02:07:12;;;;;;;6.10;4.30;;;;;;;3.08;100.00;96507.10;110338;1242;68578;-74
2024/01/05 02:09:42;;;;;;;;;;;;;;;3.04;100.00;96515.58;110468;1241;59757;-74
2024/01/05 02:12:16;;;;;;;6.50;4.60;;;;;;;2.98;100.00;96518.14;110400;1240;59691;-74
2024/01/05 02:14:47;;;;;;;;;;;;;;;2.94;100.00;96524.21;110430;1243;71244;-74
2024/01/05 02:17:33;;;;;;;5.50;4.30;;;;;;;2.93;100.00;96530.69;110393;1241;69369;-73
2024/01/05 02:20:07;;;;;;;6.40;4.80;;;;;;;2.91;100.00;96526.82;110515;1242;69278;-73
2024/01/05 02:22:40;;;;;;;7.20;5.30;;;;;;;2.98;100.00;96528.67;110390;1243;59689;-73
2024/01/05 02:25:12;;;;;;;6.70;3.90;;;;;;;3.01;100.00;96528.31;110440;1239;59668;-73
2024/01/05 02:27:43;;;;;;;4.90;4.20;;;;;;;2.98;100.00;96530.02;110442;1247;71611;-73
2024/01/05 02:30:20;;;;;;;5.10;3.80;;;;;;;2.93;100.00;96528.60;110495;1240;68486;-73
2024/01/05 02:32:53;;;;;;;;;;;;;;;2.87;100.00;96528.45;110399;1239;68820;-72
2024/01/05 02:35:24;;;;;;;5.80;3.50;;;;;;;2.82;100.00;96529.89;110410;1240;59675;-73
2024/01/05 02:37:55;;;;;;;4.50;3.20;;;;;;;2.78;100.00;96538.94;110440;1239;59652;-73
2024/01/05 02:40:28;;;;;;;4.50;3.30;;;;;;;2.70;100.00;96538.30;110465;1238;70629;-73
2024/01/05 02:42:59;;;;;;;4.80;3.20;;;;;;;2.63;100.00;96542.02;110384;1238;69123;-73
2024/01/05 02:45:31;;;;;;;6.10;4.50;;;;;;;2.56;100.00;96547.85;110326;1240;68595;-74
2024/01/05 02:48:02;;;;;;;8.30;4.70;;;;;;;2.51;100.00;96554.14;110426;1245;59738;-73
2024/01/05 02:50:33;;;;;;;5.90;4.30;;;;;;;2.49;100.00;96556.69;110360;1241;59727;-73
2024/01/05 02:53:03;;;;;;;5.60;4.10;;;;;;;2.48;100.00;96556.71;110413;1242;71275;-74
2024/01/05 02:55:35;;;;;;;7.10;4.80;;;;;;;2.47;100.00;96560.88;110426;1244;69762;-74
2024/01/05 02:58:05;;;;;;;6.30;4.30;;;;;;;2.45;100.00;96562.70;110377;1242;69274;-75
2024/01/05 03:00:35;;;;;;;7.50;5.00;;;;;;;2.40;100.00;96569.38;110408;1242;59734;-75
2024/01/05 03:03:07;;;;;;;6.20;5.00;;;;;;;2.32;100.00;96567.21;110569;1242;59662;-74
2024/01/05 03:05:40;;;;;;;7.00;4.70;;;;;;;2.23;100.00;96568.70;110446;1238;70641;-73
2024/01/05 03:08:12;;;;;;;7.80;5.80;;;;;;;2.14;100.00;96577.97;110578;1242;68603;-73
2024/01/05 03:10:44;;;;;;;6.70;4.60;;;;;;;2.05;100.00;96582.39;110583;1241;69393;-74
2024/01/05 03:13:14;;;;;;;7.10;4.60;;;;;;;1.99;100.00;96589.05;110449;1242;59712;-74
2024/01/05 03:15:45;;;;;;;7.20;4.70;;;;;;;1.93;100.00;96590.89;110453;1240;60198;-74
2024/01/05 03:18:16;;;;;;;8.40;6.50;;;;;;;1.91;100.00;96592.21;110424;1241;71594;-73
2024/01/05 03:20:48;;;;;;;7.40;5.30;;;;;;;1.88;100.00;96597.70;110484;1239;69048;-74
2024/01/05 03:23:22;;;;;;;5.70;4.40;;;;;;;1.82;100.00;96599.02;110388;1240;68928;-74
2024/01/05 03:25:56;;;;;;;5.80;3.90;;;;;;;1.77;100.00;96596.22;110392;1243;59661;-74
2024/01/05 03:28:29;;;;;;;5.60;3.60;;;;;;;1.73;100.00;96601.05;110388;1239;59758;-73
2024/01/05 03:31:01;;;;;;;4.80;3.50;;;;;;;1.69;100.00;96602.23;110484;1242;70602;-74
2024/01/05 03:33:32;;;;;;;7.30;5.30;;;;;;;1.66;100.00;96605.34;110464;1238;69529;-74
2024/01/05 03:36:06;;;;;;;5.10;3.90;;;;;;;1.63;100.00;96607.41;110488;1239;68736;-74
2024/01/05 03:38:41;;;;;;;4.40;3.20;;;;;;;1.59;100.00;96604.16;110480;1243;59708;-74
2024/01/05 03:41:13;;;;;;;4.90;2.90;;;;;;;1.54;100.00;96609.73;110467;1240;59723;-74
2024/01/05 03:43:45;;;;;;;4.00;3.20;;;;;;;1.49;100.00;96613.71;110493;1243;71407;-74
2024/01/05 03:46:19;;;;;;;4.30;2.90;;;;;;;1.44;100.00;96608.86;110463;1243;68456;-74
2024/01/05 03:48:52;;;;;;;4.20;3.20;;;;;;;1.39;100.00;96611.83;110443;1240;68524;-74
2024/01/05 03:51:23;;;;;;;3.90;2.80;;;;;;;1.35;100.00;96614.27;110462;1248;59737;-73
2024/01/05 03:53:55;;;;;;;3.70;2.90;;;;;;;1.31;100.00;96618.08;110601;1241;59743;-75
2024/01/05 03:56:27;;;;;;;3.70;3.10;;;;;;;1.26;100.00;96624.80;110579;1240;71395;-74
2024/01/05 03:58:57;;;;;;;4.20;2.70;;;;;;;1.22;100.00;96626.73;110549;1241;69125;-74
2024/01/05 04:01:31;;;;;;;4.00;2.70;;;;;;;1.18;100.00;96630.53;110315;1240;69070;-74
2024/01/05 04:04:02;;;;;;;4.80;2.60;;;;;;;1.16;100.00;96631.67;110500;1243;59664;-74
2024/01/05 04:06:34;;;;;;;9.00;6.00;;;;;;;1.15;100.00;96631.54;110437;1243;59663;-74
2024/01/05 04:09:11;;;;;;;6.70;4.70;;;;;;;1.15;100.00;96629.80;110376;1242;70455;-74
2024/01/05 04:11:42;;;;;;;6.60;5.90;;;;;;;1.15;100.00;96636.36;110427;1241;69169;-74
2024/01/05 04:14:15;;;;;;;7.10;5.70;;;;;;;1.12;100.00;96646.79;110196;1244;68332;-74
2024/01/05 04:16:46;;;;;;;7.20;5.10;;;;;;;1.09;100.00;96654.33;110423;1242;59741;-74
2024/01/05 04:19:18;;;;;;;8.50;6.00;;;;;;;1.05;100.00;96654.15;110196;1245;59691;-75
2024/01/05 04:21:51;;;;;;;8.10;6.00;;;;;;;1.00;100.00;96655.38;110401;1242;71523;-74
2024/01/05 04:24:22;;;;;;;9.00;6.60;;;;;;;0.95;100.00;96659.75;110355;1242;69296;-74
2024/01/05 04:26:53;;;;;;;9.50;6.00;;;;;;;0.94;100.00;96660.13;110421;1241;69519;-74
2024/01/05 04:29:24;;;;;;;7.40;5.50;;;;;;;0.97;100.00;96660.69;110307;1242;59732;-74
2024/01/05 04:31:57;;;;;;;7.50;5.30;;;;;;;0.97;100.00;96664.95;110357;1240;59740;-74
2024/01/05 04:34:28;;;;;;;10.00;6.10;;;;;;;0.97;100.00;96662.05;110311;1242;71412;-74
2024/01/05 04:36:59;;;;;;;6.80;5.30;;;;;;;0.96;100.00;96668.28;110310;1241;69440;-74
2024/01/05 04:39:31;;;;;;;6.40;5.10;;;;;;;0.95;100.00;96672.07;110397;1241;68412;-74
2024/01/05 04:42:03;;;;;;;6.90;5.50;;;;;;;0.94;100.00;96682.45;110360;1241;59737;-74
2024/01/05 04:44:34;;;;;;;6.60;4.90;;;;;;;0.92;100.00;96692.30;110353;1241;59703;-74
2024/01/05 04:47:04;;;;;;;7.30;5.80;;;;;;;0.89;100.00;96699.81;110426;1241;70435;-74
2024/01/05 04:49:34;;;;;;;7.20;5.50;;;;;;;0.84;100.00;96707.11;110423;1241;68619;-74
2024/01/05 04:52:04;;;;;;;;;;;;;;;0.77;100.00;96707.05;110466;1242;70161;-73
2024/01/05 04:54:34;;;;;;;7.80;5.50;;;;;;;0.68;100.00;96705.38;110341;1240;60113;-74
2024/01/05 04:57:05;;;;;;;8.10;5.40;;;;;;;0.59;100.00;96705.83;110284;1242;59660;-74
2024/01/05 04:59:37;;;;;;;8.00;5.10;;;;;;;0.50;100.00;96711.17;110162;1244;71214;-74
2024/01/05 05:02:08;;;;;;;8.50;5.70;;;;;;;0.40;100.00;96717.27;110411;1249;69230;-74
2024/01/05 05:04:38;;;;;;;8.50;6.10;;;;;;;0.32;100.00;96720.72;110293;1242;69244;-74
2024/01/05 05:07:09;;;;;;;7.50;5.90;;;;;;;0.24;100.00;96722.74;110348;1241;59681;-74
2024/01/05 05:09:42;;;;;;;19.10;9.60;;;;;;;0.20;100.00;96729.10;110331;1241;59756;-74
2024/01/05 05:12:12;;;;;;;;;;;;;;;0.18;100.00;96733.13;110314;1240;71455;-74
2024/01/05 05:14:44;;;;;;;8.50;6.50;;;;;;;0.20;100.00;96733.06;110297;1242;69215;-73
2024/01/05 05:17:14;;;;;;;9.50;5.80;;;;;;;0.21;100.00;96742.23;110445;1242;69746;-72
2024/01/05 05:19:44;;;;;;;9.40;5.00;;;;;;;0.22;100.00;96751.97;110405;1238;59744;-73
2024/01/05 05:22:18;;;;;;;7.50;4.90;;;;;;;0.26;100.00;96761.58;110400;1241;59599;-72
2024/01/05 05:24:50;;;;;;;8.00;5.10;;;;;;;0.33;100.00;96768.30;110379;1240;71072;-72
2024/01/05 05:27:21;;;;;;;5.80;4.10;;;;;;;0.40;100.00;96770.21;110456;1241;67481;-73
2024/01/05 05:29:51;;;;;;;7.10;4.60;;;;;;;0.45;100.00;96775.83;110360;1243;69384;-73
2024/01/05 05:32:22;;;;;;;6.60;5.00;;;;;;;0.49;100.00;96774.13;110368;1242;59712;-72
2024/01/05 05:34:54;;;;;;;6.00;4.30;;;;;;;0.53;100.00;96775.19;110503;1240;59646;-73
2024/01/05 05:37:24;;;;;;;9.30;5.40;;;;;;;0.56;100.00;96775.77;110473;1238;69973;-73
2024/01/05 05:39:54;;;;;;;7.20;4.40;;;;;;;0.58;100.00;96778.03;110398;1238;68466;-73
2024/01/05 05:42:24;;;;;;;7.50;5.50;;;;;;;0.61;100.00;96773.81;110438;1242;69045;-74
2024/01/05 05:44:55;;;;;;;8.20;5.10;;;;;;;0.63;100.00;96777.83;110391;1242;59743;-75
2024/01/05 05:47:27;;;;;;;9.80;7.00;;;;;;;0.64;100.00;96780.02;110519;1241;59689;-73
2024/01/05 05:49:57;;;;;;;12.40;8.20;;;;;;;0.63;100.00;96784.19;110462;1242;71404;-73
2024/01/05 05:52:27;;;;;;;9.00;7.20;;;;;;;0.62;100.00;96788.88;110527;1241;69686;-73
2024/01/05 05:54:59;;;;;;;9.40;6.40;;;;;;;0.60;100.00;96790.46;110477;1244;69429;-75
2024/01/05 05:57:29;;;;;;;8.00;6.10;;;;;;;0.59;100.00;96796.17;110380;1241;59730;-73
2024/01/05 05:59:59;;;;;;;;;;;;;;;0.59;100.00;96797.89;110434;1241;59657;-73
2024/01/05 06:02:33;;;;;;;7.20;5.00;;;;;;;0.61;100.00;96798.70;110434;1240;71406;-73
2024/01/05 06:05:04;;;;;;;;;;;;;;;0.65;100.00;96805.36;110586;1240;68840;-73
2024/01/05 06:07:35;;;;;;;7.00;5.30;;;;;;;0.67;100.00;96813.99;110461;1241;68522;-73
2024/01/05 06:10:06;;;;;;;7.00;4.90;;;;;;;0.69;100.00;96822.34;110452;1240;59734;-73
2024/01/05 06:12:36;;;;;;;11.10;7.60;;;;;;;0.72;100.00;96827.70;110600;1239;59675;-72
2024/01/05 06:15:07;;;;;;;;;;;;;;;0.72;100.00;96833.19;110493;1242;70615;-74
2024/01/05 06:17:36;;;;;;;8.60;6.10;;;;;;;0.66;100.00;96835.13;110526;1242;69259;-73
2024/01/05 06:20:08;;;;;;;7.90;6.00;;;;;;;0.63;100.00;96837.02;110580;1240;68742;-73
2024/01/05 06:22:37;;;;;;;15.30;10.50;;;;;;;0.61;100.00;96837.25;110525;1242;59657;-73
2024/01/05 06:25:07;;;;;;;13.90;10.80;;;;;;;0.62;100.00;96846.32;110396;1238;59733;-73
2024/01/05 06:27:36;;;;;;;13.40;8.60;;;;;;;0.61;100.00;96850.13;110403;1241;71825;-74
2024/01/05 06:30:10;;;;;;;11.60;8.10;;;;;;;0.60;100.00;96853.93;110428;1240;69296;-74
2024/01/05 06:32:40;;;;;;;10.30;6.60;;;;;;;0.59;100.00;96852.60;110571;1239;69909;-73
2024/01/05 06:35:12;;;;;;;8.00;6.10;;;;;;;0.61;100.00;96857.48;110542;1239;59625;-73
2024/01/05 06:37:41;;;;;;;10.60;6.70;;;;;;;0.65;100.00;96858.33;110444;1240;59659;-73
2024/01/05 06:40:11;;;;;;;13.80;9.80;;;;;;;0.66;100.00;96859.33;110486;1242;70840;-73
2024/01/05 06:42:41;;;;;;;10.30;7.80;;;;;;;0.65;100.00;96858.71;110540;1240;69206;-72
2024/01/05 06:45:10;;;;;;;10.00;7.30;;;;;;;0.64;100.00;96865.42;110463;1242;69228;-72
2024/01/05 06:47:40;;;;;;;;;;;;;;;0.63;100.00;96863.08;110483;1242;59676;-71
2024/01/05 06:50:09;;;;;;;9.90;5.90;;;;;;;0.62;100.00;96856.94;110443;1242;59693;-73
2024/01/05 06:52:39;;;;;;;10.90;6.00;;;;;;;0.71;100.00;96852.77;110540;1242;71941;-73
2024/01/05 06:55:09;;;;;;;9.40;6.80;;;;;;;0.82;100.00;96854.90;110526;1241;69360;-72
2024/01/05 06:57:39;;;;;;;7.50;5.70;;;;;;;0.88;100.00;96859.59;110448;1240;68193;-73
2024/01/05 07:00:10;;;;;;;7.80;5.80;;;;;;;0.94;100.00;96855.55;110423;1241;60011;-72
2024/01/05 07:02:40;;;;;;;13.60;10.30;;;;;;;1.02;100.00;96853.67;110448;1242;59675;-72
2024/01/05 07:05:09;;;;;;;21.20;14.00;;;;;;;1.09;100.00;96856.63;110544;1242;71947;-73
2024/01/05 07:07:42;;;;;;;17.60;11.60;;;;;;;1.12;100.00;96859.10;110460;1239;69814;-73
2024/01/05 07:10:11;;;;;;;17.10;11.90;;;;;;;1.35;100.00;96856.17;110425;1242;67526;-74
2024/01/05 07:12:41;;;;;;;14.80;11.20;;;;;;;1.80;100.00;96861.49;110382;1241;59731;-74
2024/01/05 07:15:10;;;;;;;17.20;11.80;;;;;;;2.35;100.00;96864.52;110720;1240;59750;-74
2024/01/05 07:17:40;;;;;;;17.60;12.70;;;;;;;3.03;100.00;96863.55;110972;1242;70801;-74
2024/01/05 07:20:11;;;;;;;20.80;14.30;;;;;;;3.64;100.00;96860.37;110779;1241;69595;-75
2024/01/05 07:22:40;;;;;;;17.00;13.00;;;;;;;4.23;100.00;96858.81;110427;1242;69136;-75
2024/01/05 07:25:10;;;;;;;17.80;13.10;;;;;;;4.71;100.00;96871.12;110608;1240;59661;-75
2024/01/05 07:27:40;;;;;;;13.90;11.00;;;;;;;5.30;100.00;96871.21;110705;1241;59761;-75
2024/01/05 07:30:09;;;;;;;22.50;19.10;;;;;;;6.01;100.00;96872.78;110584;1241;71823;-75
2024/01/05 07:32:39;;;;;;;19.70;16.90;;;;;;;6.61;100.00;96878.11;110530;1242;69207;-75
2024/01/05 07:35:10;;;;;;;19.50;15.40;;;;;;;7.06;100.00;96887.92;110447;1242;69832;-75
2024/01/05 07:37:40;;;;;;;18.00;14.60;;;;;;;7.39;98.82;96885.38;110374;1240;59843;-75
2024/01/05 07:40:10;;;;;;;21.10;18.80;;;;;;;7.93;100.00;96887.16;110337;1238;59737;-75
2024/01/05 07:42:39;;;;;;;38.10;30.90;;;;;;;8.17;100.00;96890.86;110368;1242;71498;-76
2024/01/05 07:45:09;;;;;;;38.70;32.00;;;;;;;8.46;100.00;96893.66;110376;1241;69826;-75
2024/01/05 07:47:38;;;;;;;;;;;;;;;8.73;98.38;96892.58;110463;1240;69123;-75
2024/01/05 07:50:08;;;;;;;50.80;38.70;;;;;;;8.71;85.38;96889.92;110374;1241;59695;-75
2024/01/05 07:52:37;;;;;;;42.20;34.80;;;;;;;8.82;82.03;96885.66;110344;1244;59665;-75
2024/01/05 07:55:07;;;;;;;32.10;26.80;;;;;;;9.37;87.70;96885.16;110384;1241;71986;-77
2024/01/05 07:57:36;;;;;;;32.90;25.90;;;;;;;9.92;85.58;96891.17;110432;1241;69846;-77
2024/01/05 08:00:07;;;;;;;25.40;19.90;;;;;;;10.10;87.57;96893.77;110348;1242;69232;-75
2024/01/05 08:02:35;;;;;;;;;;;;;;;10.54;92.12;96896.38;110177;1243;60130;-77
2024/01/05 08:05:07;;;;;;;42.70;36.20;;;;;;;11.17;97.62;96903.21;110177;1245;59711;-77
2024/01/05 08:07:36;;;;;;;48.40;34.80;;;;;;;11.68;99.48;96904.73;110267;1240;71121;-76
2024/01/05 08:10:05;;;;;;;43.70;35.20;;;;;;;11.99;89.01;96908.38;110295;1241;70043;-75
2024/01/05 08:12:36;;;;;;;42.60;34.90;;;;;;;12.11;77.04;96912.76;110308;1249;69724;-75
2024/01/05 08:15:05;;;;;;;34.60;28.80;;;;;;;12.19;74.06;96922.48;110299;1241;59678;-76
2024/01/05 08:17:34;;;;;;;28.10;24.30;;;;;;;12.43;69.58;96927.23;110445;1240;59669;-75
2024/01/05 08:20:05;;;;;;;24.50;21.80;;;;;;;12.57;65.27;96928.75;110279;1241;71991;-75
2024/01/05 08:22:36;;;;;;;21.80;17.90;;;;;;;13.07;75.75;96930.59;110296;1249;69099;-75
2024/01/05 08:25:06;;;;;;;18.10;15.50;;;;;;;13.01;69.53;96932.48;110259;1243;69697;-75
2024/01/05 08:27:35;;;;;;;19.10;15.70;;;;;;;13.27;69.55;96935.30;110288;1241;59678;-76
2024/01/05 08:30:07;;;;;;;17.50;14.00;;;;;;;12.74;62.68;96933.94;110421;1241;59634;-77
2024/01/05 08:32:37;;;;;;;15.40;13.80;;;;;;;13.34;62.49;96941.63;110233;1241;71984;-76
2024/01/05 08:35:07;;;;;;;11.50;10.30;;;;;;;13.84;68.58;96935.79;110408;1241;69189;-75
2024/01/05 08:37:36;;;;;;;11.10;9.90;;;;;;;14.27;64.06;96934.68;110449;1241;69268;-77
2024/01/05 08:40:07;;;;;;;11.40;10.00;;;;;;;13.95;60.09;96940.19;110464;1241;59678;-76
2024/01/05 08:42:36;;;;;;;10.70;8.90;;;;;;;14.05;60.27;96935.91;110398;1243;59667;-75
2024/01/05 08:45:07;;;;;;;9.00;7.10;;;;;;;14.05;57.83;96938.20;110353;1242;71860;-76
2024/01/05 08:47:37;;;;;;;8.50;7.70;;;;;;;13.84;59.97;96937.94;110415;1241;69207;-76
2024/01/05 08:50:07;;;;;;;10.90;7.80;;;;;;;13.83;57.87;96938.70;110305;1241;69312;-76
2024/01/05 08:52:36;;;;;;;;;;;;;;;13.91;58.02;96940.61;110504;1241;59694;-74
2024/01/05 08:55:07;;;;;;;10.30;8.30;;;;;;;14.43;58.40;96936.14;110722;1241;59705;-75
2024/01/05 08:57:36;;;;;;;9.20;7.20;;;;;;;14.75;57.14;96939.05;110806;1241;71426;-75
2024/01/05 09:00:10;;;;;;;8.70;7.60;;;;;;;15.02;56.09;96939.77;110771;1240;69561;-75
2024/01/05 09:02:40;;;;;;;10.90;8.30;;;;;;;15.07;54.56;96936.42;110742;1241;69249;-76
2024/01/05 09:05:09;;;;;;;8.80;7.30;;;;;;;15.27;56.44;96937.58;110461;1241;59695;-76
2024/01/05 09:07:38;;;;;;;;;;;;;;;15.95;59.28;96931.52;110611;1242;59682;-77
2024/01/05 09:10:11;;;;;;;9.20;6.60;;;;;;;16.28;54.46;96928.14;110395;1242;70808;-76
2024/01/05 09:12:40;;;;;;;7.40;6.40;;;;;;;16.46;52.82;96930.17;110405;1241;68259;-77
2024/01/05 09:15:10;;;;;;;8.50;7.60;;;;;;;16.67;52.82;96928.03;110358;1241;69900;-77
2024/01/05 09:17:39;;;;;;;8.40;6.70;;;;;;;16.80;51.23;96930.08;110466;1241;59750;-77
2024/01/05 09:20:09;;;;;;;7.60;6.30;;;;;;;16.67;49.90;96923.64;110424;1241;59741;-77
2024/01/05 09:22:38;;;;;;;5.00;4.10;;;;;;;16.70;45.99;96920.73;110520;1241;72278;-75
2024/01/05 09:25:08;;;;;;;5.30;4.40;;;;;;;14.94;49.15;96917.60;110383;1242;69236;-75
2024/01/05 09:27:37;;;;;;;5.90;4.50;;;;;;;15.08;49.49;96913.73;110376;1238;67886;-75
2024/01/05 09:30:07;;;;;;;5.30;4.10;;;;;;;14.96;49.42;96907.47;110395;1241;59721;-75
2024/01/05 09:32:37;;;;;;;4.50;4.00;;;;;;;15.19;51.33;96902.14;110376;1238;59706;-76
2024/01/05 09:35:08;;;;;;;6.70;4.20;;;;;;;15.68;49.50;96900.85;110410;1242;72159;-76
2024/01/05 09:37:37;;;;;;;4.60;3.20;;;;;;;16.18;46.94;96898.75;110384;1241;69676;-77
2024/01/05 09:40:10;;;;;;;4.00;3.10;;;;;;;15.90;46.96;96903.80;110367;1248;70204;-75
2024/01/05 09:42:41;;;;;;;3.50;2.50;;;;;;;15.54;47.33;96912.08;110303;1247;59957;-78
2024/01/05 09:45:11;;;;;;;3.50;2.60;;;;;;;15.60;47.56;96904.48;110378;1243;59762;-78
2024/01/05 09:47:43;;;;;;;3.40;2.50;;;;;;;15.93;46.93;96907.59;110433;1241;72066;-75
2024/01/05 09:50:15;;;;;;;4.90;3.60;;;;;;;16.26;46.82;96912.09;110402;1241;70165;-75
2024/01/05 09:52:45;;;;;;;5.30;4.30;;;;;;;16.69;45.92;96915.53;110383;1241;69117;-77
2024/01/05 09:55:15;;;;;;;4.70;3.90;;;;;;;16.63;45.07;96920.72;110448;1238;59680;-77
2024/01/05 09:57:45;;;;;;;6.30;5.00;;;;;;;16.90;45.19;96923.56;110503;1249;60029;-75
2024/01/05 10:00:15;;;;;;;12.90;11.70;;;;;;;17.19;44.55;96928.79;110408;1243;71675;-76
2024/01/05 10:02:59;;;;;;;4.00;2.70;;;;;;;17.07;43.10;96927.84;110408;1241;70258;-76
2024/01/05 10:05:30;;;;;;;4.00;3.10;;;;;;;16.61;43.56;96921.17;110416;1241;69497;-76
2024/01/05 10:07:59;;;;;;;4.70;2.90;;;;;;;16.99;42.50;96918.54;110336;1241;59696;-75
2024/01/05 10:10:48;;;;;;;2.40;1.50;;;;;;;16.57;42.60;96918.27;110369;1239;59736;-77
2024/01/05 10:13:17;;;;;;;3.80;3.40;;;;;;;16.41;42.56;96915.38;110497;1242;71983;-75
2024/01/05 10:16:03;;;;;;;4.90;2.50;;;;;;;16.67;42.37;96911.00;110469;1243;67597;-75
2024/01/05 10:18:33;;;;;;;3.80;2.70;;;;;;;16.70;42.43;96910.35;110478;1249;69981;-76
2024/01/05 10:21:09;;;;;;;4.60;2.80;;;;;;;16.83;42.34;96905.61;110548;1241;59625;-76
2024/01/05 10:23:43;;;;;;;7.30;4.60;;;;;;;17.05;42.42;96902.46;110500;1241;59681;-75
2024/01/05 10:26:19;;;;;;;5.10;3.40;;;;;;;17.50;42.28;96896.51;110608;1238;70497;-75
2024/01/05 10:28:49;;;;;;;4.40;2.80;;;;;;;18.06;40.86;96884.54;110494;1243;69236;-75
2024/01/05 10:31:18;;;;;;;4.40;3.00;;;;;;;18.47;40.44;96885.94;110395;1243;69654;-74
2024/01/05 10:33:55;;;;;;;3.00;2.50;;;;;;;18.22;39.10;96883.27;110445;1241;59734;-74
2024/01/05 10:36:26;;;;;;;3.70;2.30;;;;;;;18.05;39.01;96883.41;110359;1241;60076;-74
2024/01/05 10:38:56;;;;;;;3.40;2.70;;;;;;;17.52;39.50;96887.33;110514;1238;71404;-76
2024/01/05 10:41:28;;;;;;;4.80;3.80;;;;;;;18.37;39.97;96883.35;110567;1242;69857;-75
2024/01/05 10:43:58;;;;;;;4.90;2.90;;;;;;;19.11;38.43;96888.46;110588;1238;69257;-78
2024/01/05 10:46:28;;;;;;;3.90;3.10;;;;;;;18.81;39.21;96882.23;110442;1241;59707;-76
2024/01/05 10:48:57;;;;;;;4.90;3.20;;;;;;;18.36;38.55;96881.13;110417;1241;59658;-75
2024/01/05 10:51:27;;;;;;;4.30;2.90;;;;;;;18.61;38.35;96880.45;110402;1239;71959;-74
2024/01/05 10:53:57;;;;;;;4.30;3.20;;;;;;;18.87;38.85;96877.05;110371;1241;69029;-74
2024/01/05 10:56:31;;;;;;;7.50;4.10;;;;;;;19.01;37.88;96874.46;110359;1241;69832;-77
2024/01/05 10:59:00;;;;;;;7.60;5.60;;;;;;;18.64;38.52;96879.38;110515;1242;59730;-77
2024/01/05 11:01:31;;;;;;;5.40;3.60;;;;;;;18.30;38.49;96882.73;110592;1241;59636;-74
2024/01/05 11:04:01;;;;;;;5.20;3.00;;;;;;;17.73;39.57;96873.66;109974;1241;658340;-75
2024/01/05 11:06:33;;;;;;;3.90;3.20;;;;;;;18.08;39.80;96863.83;110494;1240;69210;-76
2024/01/05 11:09:20;;;;;;;4.20;3.20;;;;;;;18.20;38.73;96870.45;110418;1241;69581;-74
2024/01/05 11:12:05;;;;;;;5.50;2.80;;;;;;;18.14;39.17;96876.81;110504;1241;59792;-76
2024/01/05 11:14:57;;;;;;;4.00;2.90;;;;;;;17.58;40.75;96879.03;110454;1239;59581;-74
2024/01/05 11:17:32;;;;;;;4.10;2.60;;;;;;;17.80;39.90;96867.28;110399;1238;70617;-71
2024/01/05 11:20:23;;;;;;;3.80;3.20;;;;;;;17.65;40.25;96858.36;110515;1242;67492;-73
2024/01/05 11:22:54;;;;;;;4.60;3.40;;;;;;;18.04;39.64;96867.31;110500;1238;70023;-73
2024/01/05 11:25:23;;;;;;;3.80;2.40;;;;;;;18.03;39.43;96871.09;110443;1243;59740;-76
2024/01/05 11:27:52;;;;;;;4.30;2.70;;;;;;;18.73;39.82;96869.04;110639;1241;60198;-74
2024/01/05 11:30:41;;;;;;;3.70;2.30;;;;;;;19.16;37.95;96868.25;110608;1238;71430;-73
2024/01/05 11:33:46;;;;;;;3.90;2.60;;;;;;;18.97;37.28;96873.35;110364;1241;69662;-74
2024/01/05 11:36:50;;;;;;;4.00;2.70;;;;;;;20.00;36.84;96867.59;110435;1241;69898;-73
2024/01/05 11:39:49;;;;;;;3.50;2.70;;;;;;;19.79;36.12;96868.73;110425;1238;59705;-75
2024/01/05 11:42:41;;;;;;;3.90;3.20;;;;;;;19.13;37.13;96867.27;110546;1241;59699;-74
2024/01/05 11:45:11;;;;;;;4.90;3.60;;;;;;;19.65;36.18;96867.65;110409;1245;71333;-75
2024/01/05 11:47:46;;;;;;;4.90;3.00;;;;;;;18.55;37.17;96871.86;110501;1238;68437;-74